Time;durP1;ratioP1;P1;durP2;ratioP2;P2;SDS_P1;SDS_P2;PMS_P1;PMS_P2;Temp;Humidity;BMP_temperature;BMP_pressure;BME280_temperature;BME280_humidity;BME280_pressure;Samples;Min_cycle;Max_cycle;Signal;HPM_P1;HPM_P2
2023/12/04 00:00:24;;;;;;;2.13;1.50;;;;;;;10.03;57.74;99179.34;4937168;28;20031;-78
2023/12/04 00:02:50;;;;;;;2.35;1.55;;;;;;;10.02;57.86;99193.31;4953696;29;20035;-77
2023/12/04 00:05:15;;;;;;;4.22;1.38;;;;;;;10.06;57.77;99205.22;4937182;29;20071;-78
2023/12/04 00:07:41;;;;;;;2.00;1.40;;;;;;;10.04;57.71;99217.50;4954065;28;20487;-79
2023/12/04 00:10:08;;;;;;;2.10;1.50;;;;;;;9.99;57.81;99209.16;4953323;29;20039;-78
2023/12/04 00:12:33;;;;;;;1.90;1.55;;;;;;;10.03;57.72;99221.91;4953414;29;20483;-78
2023/12/04 00:14:59;;;;;;;2.25;1.70;;;;;;;10.01;57.61;99234.22;4952978;28;20050;-77
2023/12/04 00:17:24;;;;;;;2.80;1.65;;;;;;;10.01;57.60;99226.41;4956227;28;20027;-77
2023/12/04 00:19:50;;;;;;;4.35;1.70;;;;;;;10.01;57.50;99229.00;4940579;29;20031;-76
2023/12/04 00:22:15;;;;;;;3.58;1.60;;;;;;;10.01;57.44;99222.94;4956703;28;20043;-78
2023/12/04 00:24:41;;;;;;;2.53;1.80;;;;;;;9.99;57.29;99210.00;4956144;29;20047;-77
2023/12/04 00:27:06;;;;;;;2.10;1.40;;;;;;;9.94;57.39;99205.06;4940257;29;20395;-78
2023/12/04 00:29:32;;;;;;;2.20;1.60;;;;;;;9.99;57.14;99211.78;4940180;29;20066;-78
2023/12/04 00:31:57;;;;;;;2.28;1.70;;;;;;;9.98;57.21;99217.91;4957449;28;20372;-78
2023/12/04 00:34:23;;;;;;;2.30;1.70;;;;;;;9.93;57.10;99221.69;4956008;29;20086;-77
2023/12/04 00:36:48;;;;;;;3.50;1.98;;;;;;;9.94;57.06;99225.13;4955787;29;20098;-77
2023/12/04 00:39:14;;;;;;;2.40;1.70;;;;;;;9.90;56.98;99234.09;4957143;28;20054;-78
2023/12/04 00:41:39;;;;;;;2.70;1.80;;;;;;;9.90;57.10;99247.97;4938768;29;20046;-78
2023/12/04 00:44:05;;;;;;;2.67;1.65;;;;;;;9.89;57.05;99245.44;4971972;28;20050;-78
2023/12/04 00:46:30;;;;;;;3.47;2.05;;;;;;;9.83;56.66;99243.25;4955487;29;20030;-77
2023/12/04 00:48:56;;;;;;;3.35;2.05;;;;;;;9.86;56.66;99251.69;4955677;29;20059;-77
2023/12/04 00:51:21;;;;;;;2.88;1.80;;;;;;;9.79;56.70;99245.22;4971355;28;20039;-79
2023/12/04 00:53:46;;;;;;;3.17;2.05;;;;;;;9.82;56.78;99257.19;4939817;29;20114;-78
2023/12/04 00:56:12;;;;;;;5.30;2.47;;;;;;;9.80;56.71;99257.31;4955601;29;20043;-78
2023/12/04 00:58:38;;;;;;;2.97;2.10;;;;;;;9.79;56.69;99258.25;4939632;29;20101;-79
2023/12/04 01:01:03;;;;;;;3.17;2.03;;;;;;;9.73;56.71;99256.03;4955712;29;20035;-78
2023/12/04 01:03:32;;;;;;;2.45;1.95;;;;;;;9.72;56.49;99270.81;4955980;28;20039;-78
2023/12/04 01:05:58;;;;;;;3.30;2.17;;;;;;;9.75;56.50;99280.22;4956673;29;20442;-78
2023/12/04 01:08:24;;;;;;;3.38;2.10;;;;;;;9.70;56.45;99277.91;4956668;29;20038;-77
2023/12/04 01:10:49;;;;;;;2.47;1.80;;;;;;;9.72;56.45;99283.03;4955589;29;20031;-78
2023/12/04 01:13:15;;;;;;;2.53;1.85;;;;;;;9.68;56.50;99286.78;4956384;29;20459;-78
2023/12/04 01:15:40;;;;;;;3.13;2.05;;;;;;;9.64;56.58;99293.94;4955153;29;20027;-77
2023/12/04 01:18:06;;;;;;;3.15;1.92;;;;;;;9.54;56.77;99291.09;4971132;28;20039;-77
2023/12/04 01:20:33;;;;;;;5.05;2.45;;;;;;;9.61;56.40;99309.78;4971266;28;20127;-79
2023/12/04 01:22:58;;;;;;;7.07;2.25;;;;;;;9.59;56.57;99315.09;4954872;29;20041;-78
2023/12/04 01:25:24;;;;;;;3.00;1.95;;;;;;;9.58;56.50;99307.38;4955394;28;20039;-78
2023/12/04 01:27:49;;;;;;;3.30;2.13;;;;;;;9.56;56.32;99304.03;4954193;28;20050;-78
2023/12/04 01:30:15;;;;;;;2.47;1.83;;;;;;;9.52;56.60;99292.09;4939294;29;20047;-77
2023/12/04 01:32:40;;;;;;;3.35;2.13;;;;;;;9.55;56.53;99289.31;4938850;29;20027;-77
2023/12/04 01:35:06;;;;;;;3.47;2.33;;;;;;;9.50;56.33;99289.59;4955139;28;20039;-77
2023/12/04 01:37:32;;;;;;;3.40;2.47;;;;;;;9.49;56.33;99295.75;4954795;29;20138;-78
2023/12/04 01:39:57;;;;;;;3.35;2.00;;;;;;;9.53;56.18;99299.84;4938720;28;20050;-77
2023/12/04 01:42:23;;;;;;;3.53;2.10;;;;;;;9.50;56.40;99296.59;4954732;29;20093;-77
2023/12/04 01:44:48;;;;;;;3.08;2.10;;;;;;;9.50;56.25;99294.81;4954639;29;20122;-78
2023/12/04 01:47:14;;;;;;;3.17;2.20;;;;;;;9.53;56.27;99299.00;4970571;28;20050;-78
2023/12/04 01:49:39;;;;;;;3.22;2.22;;;;;;;9.44;56.11;99287.41;4954425;29;20023;-77
2023/12/04 01:52:05;;;;;;;3.58;2.30;;;;;;;9.47;56.24;99297.63;4954618;28;20049;-78
2023/12/04 01:54:31;;;;;;;3.45;2.20;;;;;;;9.50;56.17;99307.03;4938337;29;20067;-79
2023/12/04 01:56:56;;;;;;;3.10;2.10;;;;;;;9.47;56.29;99302.00;4954450;29;20027;-77
2023/12/04 01:59:22;;;;;;;3.20;2.20;;;;;;;9.43;56.18;99300.53;4954744;29;20035;-78
2023/12/04 02:01:47;;;;;;;3.67;2.47;;;;;;;9.43;56.30;99316.16;4953989;29;20034;-77
2023/12/04 02:04:13;;;;;;;3.28;2.35;;;;;;;9.43;56.11;99318.78;4953936;29;20114;-77
2023/12/04 02:06:40;;;;;;;2.80;2.08;;;;;;;9.42;56.24;99320.53;4937875;29;20031;-77
2023/12/04 02:09:06;;;;;;;3.33;2.35;;;;;;;9.38;56.22;99322.50;4953771;29;20130;-78
2023/12/04 02:11:32;;;;;;;4.20;2.60;;;;;;;9.33;56.35;99328.91;4969823;28;20066;-78
2023/12/04 02:13:58;;;;;;;4.03;2.65;;;;;;;9.34;56.38;99336.63;4953687;29;20116;-77
2023/12/04 02:16:24;;;;;;;3.40;2.30;;;;;;;9.29;56.49;99330.03;4954159;29;20186;-78
2023/12/04 02:18:49;;;;;;;5.05;2.30;;;;;;;9.24;56.49;99327.72;4953439;29;20135;-77
2023/12/04 02:21:15;;;;;;;3.22;2.20;;;;;;;9.26;56.30;99338.88;4937683;29;20035;-77
2023/12/04 02:23:40;;;;;;;3.33;2.38;;;;;;;9.23;56.20;99334.72;4953572;29;20126;-78
2023/12/04 02:26:10;;;;;;;4.00;2.38;;;;;;;9.20;56.33;99334.88;4954406;29;20086;-78
2023/12/04 02:28:36;;;;;;;3.40;2.53;;;;;;;9.18;56.24;99336.72;4938291;29;20035;-77
2023/12/04 02:31:01;;;;;;;3.60;2.45;;;;;;;9.15;56.22;99339.53;4953803;29;20514;-78
2023/12/04 02:33:27;;;;;;;4.22;2.40;;;;;;;9.11;56.32;99334.59;4953929;29;20046;-78
2023/12/04 02:35:52;;;;;;;4.95;2.88;;;;;;;9.13;56.22;99341.38;4953852;29;20027;-78
2023/12/04 02:38:18;;;;;;;4.13;2.47;;;;;;;9.09;56.24;99342.50;4953796;29;20070;-78
2023/12/04 02:40:43;;;;;;;3.50;2.53;;;;;;;9.06;56.50;99345.28;4953887;28;20070;-78
2023/12/04 02:43:09;;;;;;;3.67;2.47;;;;;;;9.04;56.56;99348.00;4954813;29;20057;-77
2023/12/04 02:45:34;;;;;;;3.20;2.30;;;;;;;9.01;56.74;99344.72;4954959;29;20031;-77
2023/12/04 02:48:00;;;;;;;3.35;2.58;;;;;;;9.02;56.40;99352.44;4969406;28;20427;-79
2023/12/04 02:50:25;;;;;;;4.72;2.78;;;;;;;8.94;56.61;99346.88;4953535;29;20133;-79
2023/12/04 02:52:51;;;;;;;3.15;2.45;;;;;;;8.99;56.36;99354.41;4969502;28;20062;-79
2023/12/04 02:55:16;;;;;;;3.70;2.85;;;;;;;8.98;56.42;99363.13;4953532;28;20517;-77
2023/12/04 02:57:42;;;;;;;3.20;2.33;;;;;;;8.97;56.52;99370.13;4937699;29;20138;-78
2023/12/04 03:00:08;;;;;;;3.65;2.58;;;;;;;8.96;56.17;99365.84;4969804;28;20031;-78
2023/12/04 03:02:33;;;;;;;3.88;2.33;;;;;;;8.96;56.35;99362.41;4953285;28;20484;-78
2023/12/04 03:04:59;;;;;;;5.05;2.45;;;;;;;8.90;56.28;99342.75;4953116;29;20039;-78
2023/12/04 03:07:24;;;;;;;4.03;2.80;;;;;;;8.93;56.39;99349.56;4953006;29;20035;-77
2023/12/04 03:09:50;;;;;;;3.88;2.53;;;;;;;8.91;56.28;99354.03;4953253;29;20494;-79
2023/12/04 03:12:16;;;;;;;3.58;2.65;;;;;;;8.89;56.72;99361.94;4937598;29;20110;-77
2023/12/04 03:14:42;;;;;;;2.90;2.33;;;;;;;8.88;56.33;99363.69;4952962;28;20039;-77
2023/12/04 03:17:07;;;;;;;3.33;2.58;;;;;;;8.87;56.49;99361.16;4954198;29;20032;-77
2023/12/04 03:19:33;;;;;;;4.25;3.00;;;;;;;8.88;56.57;99362.84;4936932;29;20027;-77
2023/12/04 03:22:00;;;;;;;3.95;2.70;;;;;;;8.86;56.30;99357.75;4952520;29;20051;-78
2023/12/04 03:24:25;;;;;;;7.18;2.85;;;;;;;8.87;56.32;99364.63;4953294;29;20055;-77
2023/12/04 03:26:51;;;;;;;5.97;3.00;;;;;;;8.86;56.20;99378.56;4937574;29;20035;-78
2023/12/04 03:29:16;;;;;;;4.60;3.00;;;;;;;8.83;56.30;99367.50;4953082;29;20038;-78
2023/12/04 03:31:42;;;;;;;4.50;3.30;;;;;;;8.86;56.26;99368.16;4953094;28;20042;-77
2023/12/04 03:34:08;;;;;;;3.30;2.60;;;;;;;8.85;56.00;99365.63;4953534;29;20054;-78
2023/12/04 03:36:34;;;;;;;4.43;2.85;;;;;;;8.84;56.29;99370.03;4952866;29;20054;-77
2023/12/04 03:38:59;;;;;;;4.20;2.75;;;;;;;8.85;56.23;99373.44;4953648;29;20038;-78
2023/12/04 03:41:25;;;;;;;3.67;2.80;;;;;;;8.84;56.10;99382.22;4936825;29;20031;-77
2023/12/04 03:43:50;;;;;;;4.45;2.30;;;;;;;8.83;56.17;99376.16;4954434;29;20031;-78
2023/12/04 03:46:16;;;;;;;4.28;3.10;;;;;;;8.83;56.36;99386.56;4954418;29;20490;-77
2023/12/04 03:48:41;;;;;;;5.95;3.50;;;;;;;8.76;56.27;99377.44;4937175;29;20047;-78
2023/12/04 03:51:07;;;;;;;5.63;2.80;;;;;;;8.75;56.19;99375.75;4969514;28;20483;-77
2023/12/04 03:53:33;;;;;;;6.15;2.72;;;;;;;8.78;56.30;99378.19;4940628;29;20039;-78
2023/12/04 03:55:59;;;;;;;5.28;2.88;;;;;;;8.81;56.28;99372.81;4956495;29;20058;-78
2023/12/04 03:58:24;;;;;;;4.30;2.63;;;;;;;8.78;55.90;99372.16;4957094;28;20043;-78
2023/12/04 04:00:50;;;;;;;3.60;2.65;;;;;;;8.78;56.01;99379.97;4956848;29;20070;-77
2023/12/04 04:03:15;;;;;;;4.72;2.78;;;;;;;8.83;56.00;99375.31;4972856;28;20034;-78
2023/12/04 04:05:41;;;;;;;4.35;3.00;;;;;;;8.84;55.93;99390.84;4956507;29;20071;-78
2023/12/04 04:08:07;;;;;;;3.90;2.97;;;;;;;8.82;55.61;99390.09;4940834;29;20518;-77
2023/12/04 04:10:33;;;;;;;4.20;2.95;;;;;;;8.79;56.17;99390.28;4956737;29;20119;-77
2023/12/04 04:12:59;;;;;;;7.38;2.88;;;;;;;8.81;55.65;99404.03;4941061;29;20047;-77
2023/12/04 04:15:25;;;;;;;3.67;2.85;;;;;;;8.83;55.83;99407.38;4956542;29;20105;-77
2023/12/04 04:17:51;;;;;;;4.13;2.67;;;;;;;8.84;55.68;99413.44;4971874;28;20031;-78
2023/12/04 04:20:17;;;;;;;4.85;3.00;;;;;;;8.83;55.76;99403.94;4956094;29;20380;-76
2023/12/04 04:22:42;;;;;;;5.03;3.13;;;;;;;8.84;55.55;99401.25;4956539;29;20039;-76
2023/12/04 04:25:08;;;;;;;3.83;2.83;;;;;;;8.83;55.92;99410.00;4956920;29;20193;-77
2023/12/04 04:27:33;;;;;;;4.18;2.88;;;;;;;8.82;55.81;99408.34;4956076;29;20054;-77
2023/12/04 04:29:59;;;;;;;4.05;3.05;;;;;;;8.78;55.85;99406.81;4955943;29;20498;-78
2023/12/04 04:32:25;;;;;;;4.00;2.75;;;;;;;8.80;55.79;99415.38;4961001;29;20027;-77
2023/12/04 04:34:50;;;;;;;4.50;2.97;;;;;;;8.82;55.48;99423.94;4963531;28;20027;-79
2023/12/04 04:37:16;;;;;;;3.42;2.70;;;;;;;8.82;55.65;99429.16;4931380;29;20043;-77
2023/12/04 04:39:41;;;;;;;3.95;2.90;;;;;;;8.81;55.57;99424.03;4930700;29;20042;-78
2023/12/04 04:42:07;;;;;;;4.05;2.80;;;;;;;8.85;55.81;99438.53;4933940;28;20050;-76
2023/12/04 04:44:34;;;;;;;3.72;2.40;;;;;;;8.92;63.45;99433.81;4978386;28;20031;-82
2023/12/04 04:46:59;;;;;;;3.65;1.98;;;;;;;9.46;70.37;99438.47;4962412;28;20034;-74
2023/12/04 04:49:25;;;;;;;3.65;2.05;;;;;;;9.67;70.72;99428.47;4971801;28;20418;-84
2023/12/04 04:51:50;;;;;;;3.60;2.10;;;;;;;9.77;69.84;99427.81;4965647;28;20034;-75
2023/12/04 04:54:16;;;;;;;4.15;2.08;;;;;;;9.72;66.27;99436.84;4991389;28;20137;-72
2023/12/04 04:56:41;;;;;;;4.18;2.22;;;;;;;9.63;65.45;99426.97;4979834;28;20035;-81
2023/12/04 04:59:07;;;;;;;3.78;2.65;;;;;;;9.69;66.79;99440.47;4995378;28;20039;-79
2023/12/04 05:01:32;;;;;;;4.45;2.60;;;;;;;9.62;65.17;99441.78;4977426;28;20026;-78
2023/12/04 05:03:58;;;;;;;3.58;2.63;;;;;;;9.55;64.72;99443.09;4975239;28;20093;-82
2023/12/04 05:06:24;;;;;;;4.72;3.28;;;;;;;9.47;64.23;99451.41;4976056;28;20065;-75
2023/12/04 05:08:52;;;;;;;4.50;3.00;;;;;;;9.41;63.87;99452.59;4991117;28;20066;-76
2023/12/04 05:11:17;;;;;;;4.80;3.00;;;;;;;9.37;63.47;99455.47;4974706;28;20026;-78
2023/12/04 05:13:44;;;;;;;4.70;3.08;;;;;;;9.27;63.02;99446.53;4973898;28;20097;-81
2023/12/04 05:16:10;;;;;;;3.97;2.67;;;;;;;9.24;62.37;99452.75;4975206;28;20031;-78
2023/12/04 05:18:36;;;;;;;4.40;2.92;;;;;;;9.19;62.14;99450.44;4990658;28;20466;-74
2023/12/04 05:21:02;;;;;;;6.35;2.97;;;;;;;9.17;62.05;99459.25;4958990;28;20042;-74
2023/12/04 05:23:28;;;;;;;4.03;2.65;;;;;;;9.10;61.47;99458.78;4973278;28;20031;-77
2023/12/04 05:25:53;;;;;;;4.00;2.60;;;;;;;9.11;61.53;99460.47;4988146;28;20030;-74
2023/12/04 05:28:19;;;;;;;3.75;2.65;;;;;;;9.08;61.28;99470.19;4973728;28;20113;-74
2023/12/04 05:30:44;;;;;;;3.60;2.65;;;;;;;9.05;61.20;99477.28;4973874;28;20483;-75
2023/12/04 05:33:10;;;;;;;4.05;3.00;;;;;;;9.03;60.79;99473.94;4985186;28;20110;-76
2023/12/04 05:35:37;;;;;;;3.95;2.95;;;;;;;9.00;60.68;99479.31;4970604;28;20031;-75
2023/12/04 05:38:02;;;;;;;7.22;3.60;;;;;;;8.98;60.41;99480.31;4970635;28;20034;-75
2023/12/04 05:40:28;;;;;;;4.60;2.83;;;;;;;8.97;60.02;99481.28;4954431;29;20031;-76
2023/12/04 05:42:54;;;;;;;4.63;3.05;;;;;;;8.93;59.97;99482.34;4954749;28;20043;-76
2023/12/04 05:45:19;;;;;;;4.30;2.97;;;;;;;8.96;59.97;99496.03;4954425;28;20376;-76
2023/12/04 05:47:45;;;;;;;4.05;2.95;;;;;;;8.91;59.56;99482.44;4954494;28;20082;-76
2023/12/04 05:50:10;;;;;;;5.00;3.13;;;;;;;8.93;59.50;99493.59;4970982;28;20054;-76
2023/12/04 05:52:36;;;;;;;4.63;2.58;;;;;;;8.93;59.41;99498.81;4970228;28;20075;-75
2023/12/04 05:55:02;;;;;;;4.53;2.80;;;;;;;8.94;59.35;99503.09;4938580;29;20102;-75
2023/12/04 05:57:27;;;;;;;8.38;2.78;;;;;;;8.94;59.03;99504.88;4970179;28;20529;-76
2023/12/04 05:59:53;;;;;;;3.97;2.42;;;;;;;8.93;58.81;99511.00;4954311;28;20043;-75
2023/12/04 06:02:19;;;;;;;3.60;2.70;;;;;;;8.96;59.23;99523.84;4970093;28;20042;-76
2023/12/04 06:04:44;;;;;;;4.13;2.67;;;;;;;8.97;58.93;99528.13;4938489;29;20090;-76
2023/12/04 06:07:10;;;;;;;3.90;2.70;;;;;;;8.96;58.62;99526.44;4954297;29;20475;-76
2023/12/04 06:09:36;;;;;;;5.82;2.90;;;;;;;8.96;59.04;99532.50;4954015;29;20471;-75
2023/12/04 06:12:07;;;;;;;4.50;2.30;;;;;;;8.99;58.73;99532.31;4970005;28;20027;-76
2023/12/04 06:14:33;;;;;;;4.60;2.90;;;;;;;9.00;58.47;99536.63;4969070;28;20031;-77
2023/12/04 06:16:59;;;;;;;5.88;3.05;;;;;;;8.99;58.51;99531.50;4967404;28;20042;-75
2023/12/04 06:19:24;;;;;;;5.20;3.30;;;;;;;9.04;58.26;99540.72;4953551;29;20039;-79
2023/12/04 06:21:50;;;;;;;6.70;3.47;;;;;;;9.07;58.42;99547.50;4938063;29;20031;-80
2023/12/04 06:24:16;;;;;;;4.60;2.90;;;;;;;9.07;58.42;99542.31;4955551;29;20038;-80
2023/12/04 06:26:42;;;;;;;5.88;3.42;;;;;;;9.10;58.31;99542.13;4970097;28;20027;-80
2023/12/04 06:29:08;;;;;;;6.93;3.83;;;;;;;9.15;58.26;99541.88;4954517;29;20039;-81
2023/12/04 06:31:34;;;;;;;4.45;3.38;;;;;;;9.19;58.14;99544.22;4969987;28;20035;-81
2023/12/04 06:33:59;;;;;;;5.60;3.58;;;;;;;9.22;58.00;99551.84;4941404;29;20046;-81
2023/12/04 06:36:25;;;;;;;4.75;3.30;;;;;;;9.26;58.07;99551.69;4953569;29;20027;-79
2023/12/04 06:38:50;;;;;;;5.32;3.75;;;;;;;9.40;60.27;99559.53;4956656;29;20042;-82
2023/12/04 06:41:17;;;;;;;5.93;3.47;;;;;;;9.55;60.18;99566.44;4938979;29;20062;-78
2023/12/04 06:43:43;;;;;;;4.25;3.17;;;;;;;9.56;59.55;99554.25;4953695;29;20027;-79
2023/12/04 06:46:09;;;;;;;5.28;3.20;;;;;;;9.72;63.32;99570.66;4937359;29;20066;-77
2023/12/04 06:48:35;;;;;;;6.03;2.90;;;;;;;9.75;61.61;99570.47;4954009;29;20035;-79
2023/12/04 06:51:00;;;;;;;4.55;3.13;;;;;;;9.72;61.13;99583.69;4938209;29;20082;-79
2023/12/04 06:53:26;;;;;;;11.07;3.30;;;;;;;9.67;60.51;99577.91;4970089;28;20043;-77
2023/12/04 06:55:51;;;;;;;5.82;2.80;;;;;;;9.64;60.10;99591.13;4953382;29;20479;-76
2023/12/04 06:58:17;;;;;;;4.65;3.10;;;;;;;9.62;59.79;99593.00;4937462;29;20039;-78
2023/12/04 07:00:42;;;;;;;4.18;2.95;;;;;;;9.59;58.91;99590.56;4937616;29;20035;-80
2023/12/04 07:03:08;;;;;;;7.88;3.13;;;;;;;9.56;58.34;99588.13;4934778;29;20039;-77
2023/12/04 07:05:33;;;;;;;4.43;2.72;;;;;;;9.55;58.02;99594.25;4967811;28;20039;-77
2023/12/04 07:08:00;;;;;;;5.25;2.63;;;;;;;9.96;71.19;99593.59;4938033;29;20031;-83
2023/12/04 07:10:25;;;;;;;4.07;2.20;;;;;;;10.18;68.45;99589.69;4949582;28;20058;-76
2023/12/04 07:12:51;;;;;;;4.60;2.60;;;;;;;10.25;64.70;99599.66;4937048;29;20491;-76
2023/12/04 07:15:17;;;;;;;6.93;2.80;;;;;;;10.24;63.64;99584.94;4953281;29;20031;-77
2023/12/04 07:17:42;;;;;;;4.40;2.58;;;;;;;10.29;62.89;99600.31;4953190;28;20145;-77
2023/12/04 07:20:08;;;;;;;3.80;2.10;;;;;;;10.27;62.13;99604.78;4953287;28;20074;-76
2023/12/04 07:22:34;;;;;;;3.83;2.60;;;;;;;10.21;61.56;99595.56;4953060;28;20466;-76
2023/12/04 07:25:00;;;;;;;4.40;2.70;;;;;;;10.26;60.71;99603.09;4953337;28;20039;-81
2023/12/04 07:27:25;;;;;;;5.93;2.92;;;;;;;10.25;60.51;99602.28;4939949;29;20034;-78
2023/12/04 07:29:51;;;;;;;4.00;2.92;;;;;;;10.25;60.14;99609.28;4941466;29;20183;-78
2023/12/04 07:32:18;;;;;;;4.65;2.33;;;;;;;10.27;59.20;99605.63;4942994;29;20042;-78
2023/12/04 07:34:43;;;;;;;4.70;2.78;;;;;;;10.27;58.75;99610.84;4957083;29;20028;-79
2023/12/04 07:37:09;;;;;;;5.68;2.70;;;;;;;10.28;58.33;99614.31;4941684;29;20171;-80
2023/12/04 07:39:34;;;;;;;5.55;2.90;;;;;;;10.23;58.12;99617.19;4957136;28;20047;-78
2023/12/04 07:42:00;;;;;;;4.88;2.97;;;;;;;10.20;57.61;99619.97;4974096;28;20067;-79
2023/12/04 07:44:25;;;;;;;4.53;2.72;;;;;;;10.19;57.25;99620.06;4958822;29;20074;-80
2023/12/04 07:46:51;;;;;;;5.32;3.35;;;;;;;10.14;56.71;99621.19;4959194;28;20031;-80
2023/12/04 07:49:16;;;;;;;4.90;2.92;;;;;;;10.09;56.59;99622.41;4958113;29;20119;-78
2023/12/04 07:51:42;;;;;;;5.20;2.80;;;;;;;10.12;56.02;99624.81;4957039;29;20106;-79
2023/12/04 07:54:07;;;;;;;7.78;3.20;;;;;;;10.11;55.55;99623.97;4941425;28;20043;-80
2023/12/04 07:56:33;;;;;;;5.38;2.85;;;;;;;10.14;55.40;99621.19;4957552;29;20032;-80
2023/12/04 07:58:58;;;;;;;4.65;2.90;;;;;;;10.17;54.77;99625.38;4973290;28;20098;-79
2023/12/04 08:01:24;;;;;;;4.80;3.17;;;;;;;10.17;54.46;99614.09;4973877;28;20058;-81
2023/12/04 08:03:49;;;;;;;4.43;2.88;;;;;;;10.22;54.45;99619.88;4973391;28;20097;-81
2023/12/04 08:06:18;;;;;;;6.15;3.58;;;;;;;10.29;54.14;99624.66;4957232;29;20034;-81
2023/12/04 08:08:43;;;;;;;4.38;2.90;;;;;;;10.38;53.68;99623.25;4957723;29;20035;-81
2023/12/04 08:11:10;;;;;;;4.78;3.33;;;;;;;10.44;53.36;99622.06;4957602;29;20047;-81
2023/12/04 08:13:35;;;;;;;4.35;2.92;;;;;;;10.43;53.03;99617.75;4957118;28;20039;-82
2023/12/04 08:16:01;;;;;;;4.43;2.90;;;;;;;10.51;53.09;99625.94;4956872;28;20106;-79
2023/12/04 08:18:27;;;;;;;5.38;2.72;;;;;;;10.55;52.60;99624.84;4957196;28;20470;-80
2023/12/04 08:20:52;;;;;;;5.07;3.00;;;;;;;10.58;52.20;99629.88;4956758;28;20055;-81
2023/12/04 08:23:18;;;;;;;4.88;3.00;;;;;;;10.61;52.12;99631.44;4956638;28;20108;-80
2023/12/04 08:25:44;;;;;;;5.35;3.05;;;;;;;10.64;51.91;99623.41;4972608;28;20027;-81
2023/12/04 08:28:09;;;;;;;4.53;2.65;;;;;;;10.73;51.80;99632.47;4956191;29;20065;-81
2023/12/04 08:30:35;;;;;;;4.78;3.00;;;;;;;10.74;51.16;99627.13;4972408;28;20035;-80
2023/12/04 08:33:01;;;;;;;4.65;2.88;;;;;;;10.88;50.96;99636.72;4940495;29;20042;-78
2023/12/04 08:35:26;;;;;;;3.47;2.78;;;;;;;10.97;50.68;99635.28;4972146;28;20027;-81
2023/12/04 08:37:52;;;;;;;6.80;2.83;;;;;;;11.04;50.34;99634.81;4956035;28;20561;-80
2023/12/04 08:40:17;;;;;;;4.22;2.80;;;;;;;11.10;50.05;99641.44;4972062;28;20043;-80
2023/12/04 08:42:43;;;;;;;4.28;2.88;;;;;;;11.13;49.69;99627.31;4956244;28;20079;-79
2023/12/04 08:45:09;;;;;;;4.13;2.72;;;;;;;11.11;49.46;99634.41;4972554;28;20050;-80
2023/12/04 08:47:35;;;;;;;5.72;3.22;;;;;;;11.09;49.66;99639.75;4955986;29;20403;-79
2023/12/04 08:50:00;;;;;;;3.85;2.95;;;;;;;11.05;49.61;99633.03;4956099;28;20491;-79
2023/12/04 08:52:26;;;;;;;5.07;2.90;;;;;;;11.02;49.21;99628.00;4940072;29;20043;-80
2023/12/04 08:54:52;;;;;;;4.78;3.22;;;;;;;11.12;49.21;99649.16;4971665;28;20078;-80
2023/12/04 08:57:17;;;;;;;7.78;2.92;;;;;;;11.21;48.63;99635.47;4972057;28;20487;-80
2023/12/04 08:59:43;;;;;;;4.82;2.80;;;;;;;11.29;48.53;99633.25;4939873;29;20054;-79
2023/12/04 09:02:10;;;;;;;6.97;3.60;;;;;;;11.34;48.15;99623.31;4939702;29;20514;-80
2023/12/04 09:04:35;;;;;;;5.13;3.45;;;;;;;11.44;48.07;99631.38;4971867;28;20043;-78
2023/12/04 09:07:01;;;;;;;4.55;3.10;;;;;;;11.39;47.96;99617.78;4956182;28;20047;-82
2023/12/04 09:09:26;;;;;;;4.78;3.40;;;;;;;11.46;47.73;99641.75;4955678;28;20454;-81
2023/12/04 09:11:52;;;;;;;6.18;3.15;;;;;;;11.43;47.89;99632.31;4972028;28;20395;-80
2023/12/04 09:14:17;;;;;;;5.40;3.25;;;;;;;11.41;47.98;99624.56;4971750;28;20031;-79
2023/12/04 09:16:43;;;;;;;5.50;3.63;;;;;;;11.44;48.05;99641.00;4957121;29;20063;-80
2023/12/04 09:19:08;;;;;;;5.93;3.10;;;;;;;11.40;47.90;99638.59;4955708;29;20039;-76
2023/12/04 09:21:35;;;;;;;4.60;3.13;;;;;;;11.36;48.31;99634.50;4955114;29;20122;-76
2023/12/04 09:24:01;;;;;;;5.75;3.28;;;;;;;11.32;48.39;99634.78;4955261;29;20039;-75
2023/12/04 09:26:26;;;;;;;4.65;3.08;;;;;;;11.26;48.18;99630.81;4939180;29;20031;-77
2023/12/04 09:28:52;;;;;;;5.25;3.50;;;;;;;11.24;48.34;99635.28;4939244;29;20483;-78
2023/12/04 09:31:18;;;;;;;5.20;3.50;;;;;;;11.16;48.21;99627.13;4955190;28;20483;-76
2023/12/04 09:33:43;;;;;;;5.28;3.45;;;;;;;11.12;48.54;99634.31;4939156;29;20078;-77
2023/12/04 09:36:09;;;;;;;4.53;3.25;;;;;;;11.08;48.54;99640.66;4939201;29;20411;-76
2023/12/04 09:38:35;;;;;;;5.57;3.22;;;;;;;11.02;48.84;99630.59;4955184;29;20031;-79
2023/12/04 09:41:02;;;;;;;7.18;3.08;;;;;;;10.91;49.05;99628.69;4954570;28;20041;-77
2023/12/04 09:43:30;;;;;;;5.47;3.65;;;;;;;10.89;48.89;99632.34;4970985;28;20418;-77
2023/12/04 09:45:56;;;;;;;;;;;;;;;10.86;49.15;99633.34;4971364;28;20552;-73
2023/12/04 09:48:22;;;;;;;5.35;3.42;;;;;;;10.76;49.27;99625.25;4954554;28;19914;-78
2023/12/04 09:50:48;;;;;;;5.20;3.33;;;;;;;10.74;49.57;99624.53;4954252;28;20459;-77
2023/12/04 09:53:13;;;;;;;5.10;3.50;;;;;;;10.77;49.66;99631.31;4970706;28;20063;-76
2023/12/04 09:55:40;;;;;;;4.95;3.20;;;;;;;10.75;49.56;99634.03;4970479;28;20404;-77
2023/12/04 09:58:05;;;;;;;5.57;3.22;;;;;;;10.71;49.30;99619.50;4954540;29;20106;-77
2023/12/04 10:00:32;;;;;;;7.28;3.70;;;;;;;10.71;49.17;99623.91;4954259;29;20218;-77
2023/12/04 10:02:57;;;;;;;5.28;3.35;;;;;;;10.72;49.08;99625.56;4954494;29;20038;-77
2023/12/04 10:05:23;;;;;;;5.80;3.50;;;;;;;10.72;49.19;99623.78;4938322;29;20035;-76
2023/12/04 10:07:49;;;;;;;3.83;2.95;;;;;;;10.73;49.29;99633.28;4938648;29;20050;-77
2023/12/04 10:10:14;;;;;;;4.22;3.30;;;;;;;10.68;49.20;99625.75;4954592;29;20059;-76
2023/12/04 10:12:40;;;;;;;6.47;3.58;;;;;;;10.70;49.09;99628.25;4954228;29;20054;-76
2023/12/04 10:15:07;;;;;;;7.85;4.00;;;;;;;10.72;49.01;99634.25;4954712;29;20039;-74
2023/12/04 10:17:35;;;;;;;6.30;3.30;;;;;;;10.72;49.25;99628.16;4954054;29;20023;-75
2023/12/04 10:20:17;;;;;;;4.27;3.10;;;;;;;10.72;49.05;99621.19;4938380;29;20035;-77
2023/12/04 10:22:54;;;;;;;3.90;2.97;;;;;;;10.73;49.18;99620.22;4954441;28;20419;-78
2023/12/04 10:25:19;;;;;;;5.68;3.28;;;;;;;10.74;49.23;99623.69;4954417;29;20631;-78
2023/12/04 10:27:46;;;;;;;5.85;3.83;;;;;;;10.74;49.17;99615.88;4954181;29;20047;-78
2023/12/04 10:30:28;;;;;;;6.18;3.28;;;;;;;10.81;49.08;99620.59;4938216;28;20042;-76
2023/12/04 10:32:55;;;;;;;5.88;3.47;;;;;;;10.82;49.05;99621.44;4953718;29;20054;-76
2023/12/04 10:35:20;;;;;;;5.82;3.20;;;;;;;10.82;48.79;99606.59;4937977;29;20517;-77
2023/12/04 10:37:46;;;;;;;6.15;3.80;;;;;;;10.89;48.91;99609.66;4953803;29;20027;-78
2023/12/04 10:40:12;;;;;;;6.00;3.65;;;;;;;10.91;48.52;99594.75;4953711;28;20058;-79
2023/12/04 10:42:37;;;;;;;5.85;3.40;;;;;;;10.94;48.70;99602.38;4953797;28;20062;-78
2023/12/04 10:45:06;;;;;;;5.35;3.50;;;;;;;10.92;48.69;99611.25;4953708;28;20106;-78
2023/12/04 10:47:31;;;;;;;5.75;3.80;;;;;;;10.95;48.38;99609.25;4969563;28;20569;-78
2023/12/04 10:49:57;;;;;;;7.30;3.53;;;;;;;10.86;48.63;99605.47;4953622;29;20083;-79
2023/12/04 10:52:22;;;;;;;5.47;3.35;;;;;;;10.83;48.54;99607.44;4953531;28;20129;-75
2023/12/04 10:54:48;;;;;;;6.63;3.75;;;;;;;10.83;48.37;99618.72;4953028;29;20059;-77
2023/12/04 10:57:28;;;;;;;5.03;3.30;;;;;;;10.81;48.73;99620.59;4952599;28;20082;-76
2023/12/04 10:59:59;;;;;;;6.47;3.55;;;;;;;10.79;48.75;99619.03;4952997;28;20042;-76
2023/12/04 11:02:26;;;;;;;4.78;3.45;;;;;;;10.76;48.74;99606.16;4952817;28;20031;-77
2023/12/04 11:04:53;;;;;;;6.00;3.63;;;;;;;10.78;48.53;99615.56;4952681;29;20039;-76
2023/12/04 11:07:19;;;;;;;5.72;3.40;;;;;;;10.78;48.56;99619.94;4952559;28;20034;-77
2023/12/04 11:09:44;;;;;;;7.05;3.45;;;;;;;10.77;48.51;99615.66;4952480;28;20411;-76
2023/12/04 11:12:12;;;;;;;5.90;3.25;;;;;;;10.77;48.66;99608.66;4952448;29;20035;-76
2023/12/04 11:14:43;;;;;;;5.68;3.80;;;;;;;10.75;48.57;99612.31;4952848;29;20035;-77
2023/12/04 11:17:11;;;;;;;6.00;3.58;;;;;;;10.76;48.79;99621.81;4953120;29;20068;-77
2023/12/04 11:19:47;;;;;;;5.28;3.40;;;;;;;10.76;48.65;99627.03;4952849;29;20039;-76
2023/12/04 11:22:12;;;;;;;6.45;3.70;;;;;;;10.75;48.40;99620.97;4952652;29;20059;-78
2023/12/04 11:24:38;;;;;;;4.97;3.28;;;;;;;10.76;48.67;99624.44;4952385;28;20517;-76
2023/12/04 11:27:03;;;;;;;4.40;3.40;;;;;;;10.76;48.53;99622.66;4936161;29;20086;-76
2023/12/04 11:29:29;;;;;;;7.90;3.55;;;;;;;10.71;48.79;99618.66;4952219;28;20082;-76
2023/12/04 11:31:55;;;;;;;7.20;3.55;;;;;;;10.75;48.67;99618.34;4952480;29;20139;-77